Marrowstone Island, Washington
Current Conditions -  °F | °C
As of 5:56 PM on Sunday 21 Dec 2014 (Local Time) from KNUW Reporting Station
Overcast Overcast  
Wind Chill: 51°   Ceiling: 15000
Heat Index: 51°   Visibility: 10mi
Dew Point: 43°   Wind: 0mph
Humidity: 74%   Direction: NA
Pressure: 30.04"   Gusts: NA
Location:  48.0545°N, 122.706°W
Report Text: KNUW 220156Z 00000KT 10SM OVC150 11/06 A3004 RMK AO2 SLP175 T01060061 VISNO E $
Loading
Personal Weather Stations






























Interactive Weather Map New forecast layout! Learn more

10-Day Weather Forecast

Advertisements
Track Severe Weather on mobile